sensor_id;sensor_type;location;lat;lon;timestamp;pressure;altitude;pressure_sealevel;temperature;humidity
24486;BME280;13449;49.374;8.584;2024-02-14T00:00:59;100943.00;;;3.83;100.00
24486;BME280;13449;49.374;8.584;2024-02-14T00:03:25;100948.94;;;3.87;100.00
24486;BME280;13449;49.374;8.584;2024-02-14T00:05:53;100953.84;;;3.95;100.00
24486;BME280;13449;49.374;8.584;2024-02-14T00:08:20;100957.09;;;4.00;100.00
24486;BME280;13449;49.374;8.584;2024-02-14T00:10:49;100965.97;;;4.16;100.00
24486;BME280;13449;49.374;8.584;2024-02-14T00:13:15;100967.31;;;4.25;100.00
24486;BME280;13449;49.374;8.584;2024-02-14T00:15:44;100972.28;;;4.31;100.00
24486;BME280;13449;49.374;8.584;2024-02-14T00:18:13;100977.25;;;4.37;100.00
24486;BME280;13449;49.374;8.584;2024-02-14T00:20:39;100972.72;;;4.40;100.00
24486;BME280;13449;49.374;8.584;2024-02-14T00:23:06;100970.72;;;4.47;100.00
24486;BME280;13449;49.374;8.584;2024-02-14T00:25:33;100975.59;;;4.55;100.00
24486;BME280;13449;49.374;8.584;2024-02-14T00:27:59;100969.34;;;4.59;100.00
24486;BME280;13449;49.374;8.584;2024-02-14T00:30:27;100968.44;;;4.60;100.00
24486;BME280;13449;49.374;8.584;2024-02-14T00:32:59;100973.22;;;4.69;100.00
24486;BME280;13449;49.374;8.584;2024-02-14T00:35:26;100976.63;;;4.71;100.00
24486;BME280;13449;49.374;8.584;2024-02-14T00:37:52;100972.97;;;4.75;100.00
24486;BME280;13449;49.374;8.584;2024-02-14T00:40:21;100965.78;;;4.80;100.00
24486;BME280;13449;49.374;8.584;2024-02-14T00:42:49;100963.03;;;4.83;100.00
24486;BME280;13449;49.374;8.584;2024-02-14T00:45:15;100959.50;;;4.84;100.00
24486;BME280;13449;49.374;8.584;2024-02-14T00:47:42;100949.72;;;4.89;100.00
24486;BME280;13449;49.374;8.584;2024-02-14T00:50:09;100947.75;;;4.94;100.00
24486;BME280;13449;49.374;8.584;2024-02-14T00:52:35;100935.59;;;4.93;100.00
24486;BME280;13449;49.374;8.584;2024-02-14T00:55:03;100935.47;;;4.96;100.00
24486;BME280;13449;49.374;8.584;2024-02-14T00:57:30;100935.31;;;4.99;100.00
24486;BME280;13449;49.374;8.584;2024-02-14T00:59:58;100929.94;;;5.02;100.00
24486;BME280;13449;49.374;8.584;2024-02-14T01:02:27;100923.75;;;5.05;100.00
24486;BME280;13449;49.374;8.584;2024-02-14T01:04:54;100919.25;;;5.08;100.00
24486;BME280;13449;49.374;8.584;2024-02-14T01:07:23;100925.84;;;5.16;100.00
24486;BME280;13449;49.374;8.584;2024-02-14T01:09:50;100929.22;;;5.18;100.00
24486;BME280;13449;49.374;8.584;2024-02-14T01:12:17;100918.78;;;5.18;100.00
24486;BME280;13449;49.374;8.584;2024-02-14T01:14:43;100925.44;;;5.25;100.00
24486;BME280;13449;49.374;8.584;2024-02-14T01:17:10;100921.75;;;5.29;100.00
24486;BME280;13449;49.374;8.584;2024-02-14T01:19:37;100918.22;;;5.30;100.00
24486;BME280;13449;49.374;8.584;2024-02-14T01:22:06;100914.41;;;5.37;100.00
24486;BME280;13449;49.374;8.584;2024-02-14T01:24:37;100919.63;;;5.37;100.00
24486;BME280;13449;49.374;8.584;2024-02-14T01:27:03;100905.66;;;5.38;100.00
24486;BME280;13449;49.374;8.584;2024-02-14T01:29:30;100906.34;;;5.41;100.00
24486;BME280;13449;49.374;8.584;2024-02-14T01:31:57;100905.34;;;5.44;100.00
24486;BME280;13449;49.374;8.584;2024-02-14T01:34:23;100908.72;;;5.46;100.00
24486;BME280;13449;49.374;8.584;2024-02-14T01:36:50;100900.56;;;5.52;100.00
24486;BME280;13449;49.374;8.584;2024-02-14T01:39:18;100903.00;;;5.57;100.00
24486;BME280;13449;49.374;8.584;2024-02-14T01:41:45;100886.47;;;5.56;100.00
24486;BME280;13449;49.374;8.584;2024-02-14T01:44:16;100892.31;;;5.61;100.00
24486;BME280;13449;49.374;8.584;2024-02-14T01:46:43;100890.38;;;5.65;100.00
24486;BME280;13449;49.374;8.584;2024-02-14T01:49:11;100878.91;;;5.67;100.00
24486;BME280;13449;49.374;8.584;2024-02-14T01:51:43;100877.88;;;5.71;100.00
24486;BME280;13449;49.374;8.584;2024-02-14T01:54:12;100873.41;;;5.74;100.00
24486;BME280;13449;49.374;8.584;2024-02-14T01:56:42;100874.50;;;5.69;100.00
24486;BME280;13449;49.374;8.584;2024-02-14T01:59:13;100877.31;;;5.65;100.00
24486;BME280;13449;49.374;8.584;2024-02-14T02:01:40;100878.03;;;5.68;100.00
24486;BME280;13449;49.374;8.584;2024-02-14T02:04:09;100877.72;;;5.75;100.00
24486;BME280;13449;49.374;8.584;2024-02-14T02:06:35;100874.00;;;5.79;100.00
24486;BME280;13449;49.374;8.584;2024-02-14T02:09:03;100875.84;;;5.77;100.00
24486;BME280;13449;49.374;8.584;2024-02-14T02:11:29;100871.63;;;5.74;100.00
24486;BME280;13449;49.374;8.584;2024-02-14T02:13:57;100874.09;;;5.77;100.00
24486;BME280;13449;49.374;8.584;2024-02-14T02:16:23;100871.47;;;5.77;100.00
24486;BME280;13449;49.374;8.584;2024-02-14T02:18:50;100866.25;;;5.77;100.00
24486;BME280;13449;49.374;8.584;2024-02-14T02:21:17;100856.63;;;5.78;100.00
24486;BME280;13449;49.374;8.584;2024-02-14T02:23:50;100862.72;;;5.78;100.00
24486;BME280;13449;49.374;8.584;2024-02-14T02:26:17;100857.47;;;5.78;100.00
24486;BME280;13449;49.374;8.584;2024-02-14T02:28:43;100860.34;;;5.74;100.00
24486;BME280;13449;49.374;8.584;2024-02-14T02:31:15;100851.72;;;5.71;100.00
24486;BME280;13449;49.374;8.584;2024-02-14T02:33:41;100853.59;;;5.69;100.00
24486;BME280;13449;49.374;8.584;2024-02-14T02:36:09;100857.25;;;5.65;100.00
24486;BME280;13449;49.374;8.584;2024-02-14T02:38:37;100855.63;;;5.63;100.00
24486;BME280;13449;49.374;8.584;2024-02-14T02:41:06;100855.88;;;5.58;100.00
24486;BME280;13449;49.374;8.584;2024-02-14T02:43:33;100848.03;;;5.58;100.00
24486;BME280;13449;49.374;8.584;2024-02-14T02:46:00;100848.81;;;5.60;100.00
24486;BME280;13449;49.374;8.584;2024-02-14T02:48:29;100856.63;;;5.60;100.00
24486;BME280;13449;49.374;8.584;2024-02-14T02:50:58;100855.72;;;5.61;100.00
24486;BME280;13449;49.374;8.584;2024-02-14T02:53:26;100859.09;;;5.63;100.00
24486;BME280;13449;49.374;8.584;2024-02-14T02:55:53;100866.16;;;5.61;100.00
24486;BME280;13449;49.374;8.584;2024-02-14T02:58:20;100868.63;;;5.64;100.00
24486;BME280;13449;49.374;8.584;2024-02-14T03:00:48;100868.53;;;5.66;100.00
24486;BME280;13449;49.374;8.584;2024-02-14T03:03:17;100868.34;;;5.70;100.00
24486;BME280;13449;49.374;8.584;2024-02-14T03:05:44;100875.25;;;5.71;100.00
24486;BME280;13449;49.374;8.584;2024-02-14T03:08:12;100877.88;;;5.71;100.00
24486;BME280;13449;49.374;8.584;2024-02-14T03:10:42;100881.25;;;5.74;100.00
24486;BME280;13449;49.374;8.584;2024-02-14T03:13:08;100877.72;;;5.75;100.00
24486;BME280;13449;49.374;8.584;2024-02-14T03:15:38;100881.25;;;5.74;100.00
24486;BME280;13449;49.374;8.584;2024-02-14T03:18:07;100881.84;;;5.79;100.00
24486;BME280;13449;49.374;8.584;2024-02-14T03:20:36;100877.31;;;5.82;100.00
24486;BME280;13449;49.374;8.584;2024-02-14T03:23:05;100882.03;;;5.93;100.00
24486;BME280;13449;49.374;8.584;2024-02-14T03:25:31;100883.72;;;5.94;100.00
24486;BME280;13449;49.374;8.584;2024-02-14T03:27:58;100882.03;;;5.93;100.00
24486;BME280;13449;49.374;8.584;2024-02-14T03:30:25;100893.19;;;5.96;100.00
24486;BME280;13449;49.374;8.584;2024-02-14T03:32:52;100891.56;;;5.94;100.00
24486;BME280;13449;49.374;8.584;2024-02-14T03:35:19;100891.34;;;5.98;100.00
24486;BME280;13449;49.374;8.584;2024-02-14T03:37:48;100891.41;;;5.97;100.00
24486;BME280;13449;49.374;8.584;2024-02-14T03:40:15;100893.09;;;5.98;100.00
24486;BME280;13449;49.374;8.584;2024-02-14T03:42:42;100891.41;;;5.97;100.00
24486;BME280;13449;49.374;8.584;2024-02-14T03:45:11;100898.41;;;5.96;100.00
24486;BME280;13449;49.374;8.584;2024-02-14T03:47:38;100896.56;;;5.98;100.00
24486;BME280;13449;49.374;8.584;2024-02-14T03:50:07;100904.19;;;6.03;100.00
24486;BME280;13449;49.374;8.584;2024-02-14T03:52:34;100900.81;;;6.01;100.00
24486;BME280;13449;49.374;8.584;2024-02-14T03:55:01;100900.81;;;6.01;100.00
24486;BME280;13449;49.374;8.584;2024-02-14T03:57:28;100904.13;;;6.05;100.00
24486;BME280;13449;49.374;8.584;2024-02-14T03:59:55;100902.34;;;6.05;100.00
24486;BME280;13449;49.374;8.584;2024-02-14T04:02:23;100896.94;;;6.08;100.00
24486;BME280;13449;49.374;8.584;2024-02-14T04:04:50;100902.88;;;6.12;100.00
24486;BME280;13449;49.374;8.584;2024-02-14T04:07:18;100891.41;;;6.14;100.00
24486;BME280;13449;49.374;8.584;2024-02-14T04:09:48;100889.72;;;6.13;100.00
24486;BME280;13449;49.374;8.584;2024-02-14T04:12:14;100894.94;;;6.13;100.00
24486;BME280;13449;49.374;8.584;2024-02-14T04:14:42;100889.72;;;6.13;100.00
24486;BME280;13449;49.374;8.584;2024-02-14T04:17:09;100894.84;;;6.15;100.00
24486;BME280;13449;49.374;8.584;2024-02-14T04:19:37;100898.31;;;6.15;100.00
24486;BME280;13449;49.374;8.584;2024-02-14T04:22:04;100894.81;;;6.16;100.00
24486;BME280;13449;49.374;8.584;2024-02-14T04:24:33;100901.56;;;6.20;100.00
24486;BME280;13449;49.374;8.584;2024-02-14T04:27:00;100901.41;;;6.23;100.00
24486;BME280;13449;49.374;8.584;2024-02-14T04:29:31;100907.56;;;6.22;100.00
24486;BME280;13449;49.374;8.584;2024-02-14T04:31:59;100910.09;;;6.24;100.00
24486;BME280;13449;49.374;8.584;2024-02-14T04:34:26;100909.09;;;6.26;100.00
24486;BME280;13449;49.374;8.584;2024-02-14T04:36:53;100919.63;;;6.25;100.00
24486;BME280;13449;49.374;8.584;2024-02-14T04:39:22;100913.38;;;6.27;100.00
24486;BME280;13449;49.374;8.584;2024-02-14T04:41:51;100910.78;;;6.27;100.00
24486;BME280;13449;49.374;8.584;2024-02-14T04:44:30;100910.59;;;6.30;100.00
24486;BME280;13449;49.374;8.584;2024-02-14T04:46:58;100916.94;;;6.26;100.00
24486;BME280;13449;49.374;8.584;2024-02-14T04:49:27;100913.22;;;6.30;100.00
24486;BME280;13449;49.374;8.584;2024-02-14T04:51:55;100913.94;;;6.34;100.00
24486;BME280;13449;49.374;8.584;2024-02-14T04:54:22;100910.56;;;6.32;100.00
24486;BME280;13449;49.374;8.584;2024-02-14T04:56:51;100911.31;;;6.34;100.00
24486;BME280;13449;49.374;8.584;2024-02-14T04:59:23;100914.78;;;6.35;100.00
24486;BME280;13449;49.374;8.584;2024-02-14T05:01:50;100923.38;;;6.37;100.00
24486;BME280;13449;49.374;8.584;2024-02-14T05:04:22;100907.84;;;6.34;100.00
24486;BME280;13449;49.374;8.584;2024-02-14T05:06:51;100907.84;;;6.34;100.00
24486;BME280;13449;49.374;8.584;2024-02-14T05:09:24;100914.78;;;6.35;100.00
24486;BME280;13449;49.374;8.584;2024-02-14T05:11:51;100898.16;;;6.36;100.00
24486;BME280;13449;49.374;8.584;2024-02-14T05:14:17;100900.59;;;6.39;100.00
24486;BME280;13449;49.374;8.584;2024-02-14T05:16:45;100896.22;;;6.39;100.00
24486;BME280;13449;49.374;8.584;2024-02-14T05:19:11;100899.59;;;6.41;100.00
24486;BME280;13449;49.374;8.584;2024-02-14T05:21:41;100903.97;;;6.41;100.00
24486;BME280;13449;49.374;8.584;2024-02-14T05:24:08;100906.50;;;6.42;100.00
24486;BME280;13449;49.374;8.584;2024-02-14T05:26:34;100910.22;;;6.38;100.00
24486;BME280;13449;49.374;8.584;2024-02-14T05:29:02;100906.84;;;6.36;100.00
24486;BME280;13449;49.374;8.584;2024-02-14T05:31:43;100916.13;;;6.42;100.00
24486;BME280;13449;49.374;8.584;2024-02-14T05:34:13;100905.00;;;6.38;100.00
24486;BME280;13449;49.374;8.584;2024-02-14T05:36:40;100907.44;;;6.41;100.00
24486;BME280;13449;49.374;8.584;2024-02-14T05:39:09;100905.38;;;6.48;100.00
24486;BME280;13449;49.374;8.584;2024-02-14T05:41:38;100903.06;;;6.42;100.00
24486;BME280;13449;49.374;8.584;2024-02-14T05:44:06;100905.50;;;6.45;100.00
24486;BME280;13449;49.374;8.584;2024-02-14T05:46:33;100903.66;;;6.47;100.00
24486;BME280;13449;49.374;8.584;2024-02-14T05:48:59;100896.72;;;6.46;100.00
24486;BME280;13449;49.374;8.584;2024-02-14T05:51:29;100893.34;;;6.44;100.00
24486;BME280;13449;49.374;8.584;2024-02-14T05:53:56;100893.25;;;6.45;100.00
24486;BME280;13449;49.374;8.584;2024-02-14T05:56:22;100903.59;;;6.48;100.00
24486;BME280;13449;49.374;8.584;2024-02-14T05:58:50;100912.50;;;6.44;100.00
24486;BME280;13449;49.374;8.584;2024-02-14T06:01:16;100920.34;;;6.44;100.00
24486;BME280;13449;49.374;8.584;2024-02-14T06:03:43;100922.91;;;6.46;100.00
24486;BME280;13449;49.374;8.584;2024-02-14T06:06:09;100919.34;;;6.47;100.00
24486;BME280;13449;49.374;8.584;2024-02-14T06:08:36;100930.69;;;6.47;100.00
24486;BME280;13449;49.374;8.584;2024-02-14T06:11:03;100922.75;;;6.49;100.00
24486;BME280;13449;49.374;8.584;2024-02-14T06:13:34;100925.38;;;6.49;100.00
24486;BME280;13449;49.374;8.584;2024-02-14T06:16:02;100926.13;;;6.51;100.00
24486;BME280;13449;49.374;8.584;2024-02-14T06:18:29;100923.34;;;6.54;100.00
24486;BME280;13449;49.374;8.584;2024-02-14T06:20:56;100922.44;;;6.55;100.00
24486;BME280;13449;49.374;8.584;2024-02-14T06:23:23;100930.03;;;6.59;100.00
24486;BME280;13449;49.374;8.584;2024-02-14T06:25:52;100926.56;;;6.59;100.00
24486;BME280;13449;49.374;8.584;2024-02-14T06:28:20;100931.81;;;6.59;100.00
24486;BME280;13449;49.374;8.584;2024-02-14T06:30:46;100930.75;;;6.63;100.00
24486;BME280;13449;49.374;8.584;2024-02-14T06:33:13;100924.63;;;6.63;100.00
24486;BME280;13449;49.374;8.584;2024-02-14T06:35:40;100929.00;;;6.62;100.00
24486;BME280;13449;49.374;8.584;2024-02-14T06:38:07;100929.81;;;6.64;100.00
24486;BME280;13449;49.374;8.584;2024-02-14T06:40:33;100932.25;;;6.67;100.00
24486;BME280;13449;49.374;8.584;2024-02-14T06:43:00;100932.34;;;6.66;100.00
24486;BME280;13449;49.374;8.584;2024-02-14T06:45:29;100932.44;;;6.64;100.00
24486;BME280;13449;49.374;8.584;2024-02-14T06:47:58;100942.91;;;6.64;100.00
24486;BME280;13449;49.374;8.584;2024-02-14T06:50:26;100946.28;;;6.66;100.00
24486;BME280;13449;49.374;8.584;2024-02-14T06:52:52;100948.72;;;6.69;100.00
24486;BME280;13449;49.374;8.584;2024-02-14T06:55:19;100962.75;;;6.68;100.00
24486;BME280;13449;49.374;8.584;2024-02-14T06:57:48;100968.56;;;6.73;100.00
24486;BME280;13449;49.374;8.584;2024-02-14T07:00:17;100975.50;;;6.74;100.00
24486;BME280;13449;49.374;8.584;2024-02-14T07:02:44;100975.50;;;6.74;100.00
24486;BME280;13449;49.374;8.584;2024-02-14T07:05:13;100979.72;;;6.77;100.00
24486;BME280;13449;49.374;8.584;2024-02-14T07:07:41;100986.66;;;6.78;100.00
24486;BME280;13449;49.374;8.584;2024-02-14T07:10:08;100983.81;;;6.82;100.00
24486;BME280;13449;49.374;8.584;2024-02-14T07:12:37;100977.56;;;6.85;100.00
24486;BME280;13449;49.374;8.584;2024-02-14T07:15:07;100979.00;;;6.90;100.00
24486;BME280;13449;49.374;8.584;2024-02-14T07:17:35;100980.47;;;6.96;100.00
24486;BME280;13449;49.374;8.584;2024-02-14T07:20:02;100971.44;;;7.02;100.00
24486;BME280;13449;49.374;8.584;2024-02-14T07:22:29;100976.31;;;7.08;100.00
24486;BME280;13449;49.374;8.584;2024-02-14T07:25:00;100976.22;;;7.09;100.00
24486;BME280;13449;49.374;8.584;2024-02-14T07:27:27;100989.09;;;7.14;100.00
24486;BME280;13449;49.374;8.584;2024-02-14T07:29:56;100987.25;;;7.16;100.00
24486;BME280;13449;49.374;8.584;2024-02-14T07:32:22;100974.56;;;7.24;100.00
24486;BME280;13449;49.374;8.584;2024-02-14T07:34:49;100988.09;;;7.32;100.00
24486;BME280;13449;49.374;8.584;2024-02-14T07:37:16;100985.22;;;7.37;100.00
24486;BME280;13449;49.374;8.584;2024-02-14T07:39:46;100988.94;;;7.48;100.00
24486;BME280;13449;49.374;8.584;2024-02-14T07:42:14;100995.38;;;7.59;100.00
24486;BME280;13449;49.374;8.584;2024-02-14T07:44:40;100994.09;;;7.66;100.00
24486;BME280;13449;49.374;8.584;2024-02-14T07:47:07;100996.03;;;7.78;100.00
24486;BME280;13449;49.374;8.584;2024-02-14T07:49:36;100999.22;;;7.83;100.00
24486;BME280;13449;49.374;8.584;2024-02-14T07:52:03;101000.59;;;7.90;100.00
24486;BME280;13449;49.374;8.584;2024-02-14T07:54:30;101002.09;;;7.94;100.00
24486;BME280;13449;49.374;8.584;2024-02-14T07:56:57;101001.16;;;7.95;100.00
24486;BME280;13449;49.374;8.584;2024-02-14T07:59:26;100999.38;;;7.96;100.00
24486;BME280;13449;49.374;8.584;2024-02-14T08:01:57;101001.94;;;7.97;100.00
24486;BME280;13449;49.374;8.584;2024-02-14T08:04:26;101003.78;;;7.95;100.00
24486;BME280;13449;49.374;8.584;2024-02-14T08:06:52;101003.78;;;7.95;100.00
24486;BME280;13449;49.374;8.584;2024-02-14T08:09:19;101005.56;;;7.95;100.00
24486;BME280;13449;49.374;8.584;2024-02-14T08:11:46;101007.16;;;7.97;100.00
24486;BME280;13449;49.374;8.584;2024-02-14T08:14:19;101008.69;;;8.01;100.00
24486;BME280;13449;49.374;8.584;2024-02-14T08:16:45;101008.50;;;8.04;100.00
24486;BME280;13449;49.374;8.584;2024-02-14T08:19:11;101010.97;;;8.07;100.00
24486;BME280;13449;49.374;8.584;2024-02-14T08:21:41;101021.09;;;8.14;100.00
24486;BME280;13449;49.374;8.584;2024-02-14T08:24:08;101021.09;;;8.14;100.00
24486;BME280;13449;49.374;8.584;2024-02-14T08:26:37;101026.06;;;8.18;100.00
24486;BME280;13449;49.374;8.584;2024-02-14T08:29:04;101025.84;;;8.23;100.00
24486;BME280;13449;49.374;8.584;2024-02-14T08:31:38;101022.84;;;8.29;100.00
24486;BME280;13449;49.374;8.584;2024-02-14T08:34:04;101029.03;;;8.28;100.00
24486;BME280;13449;49.374;8.584;2024-02-14T08:36:31;101024.53;;;8.30;100.00
24486;BME280;13449;49.374;8.584;2024-02-14T08:38:58;101022.66;;;8.32;100.00
24486;BME280;13449;49.374;8.584;2024-02-14T08:41:25;101031.72;;;8.42;100.00
24486;BME280;13449;49.374;8.584;2024-02-14T08:43:51;101030.50;;;8.48;100.00
24486;BME280;13449;49.374;8.584;2024-02-14T08:46:20;101034.56;;;8.53;100.00
24486;BME280;13449;49.374;8.584;2024-02-14T08:48:49;101033.44;;;8.57;100.00
24486;BME280;13449;49.374;8.584;2024-02-14T08:51:16;101040.19;;;8.61;100.00
24486;BME280;13449;49.374;8.584;2024-02-14T08:53:46;101032.13;;;8.64;100.00
24486;BME280;13449;49.374;8.584;2024-02-14T08:56:13;101024.25;;;8.64;100.00
24486;BME280;13449;49.374;8.584;2024-02-14T08:58:41;101035.91;;;8.75;100.00
24486;BME280;13449;49.374;8.584;2024-02-14T09:01:07;101026.91;;;8.79;100.00
24486;BME280;13449;49.374;8.584;2024-02-14T09:03:44;101024.56;;;8.74;100.00
24486;BME280;13449;49.374;8.584;2024-02-14T09:06:16;101025.97;;;8.80;100.00
24486;BME280;13449;49.374;8.584;2024-02-14T09:08:46;101020.47;;;8.84;100.00
24486;BME280;13449;49.374;8.584;2024-02-14T09:11:13;101027.84;;;8.92;100.00
24486;BME280;13449;49.374;8.584;2024-02-14T09:13:40;101020.72;;;8.94;100.00
24486;BME280;13449;49.374;8.584;2024-02-14T09:16:10;101017.66;;;9.02;100.00
24486;BME280;13449;49.374;8.584;2024-02-14T09:18:37;101009.28;;;9.09;100.00
24486;BME280;13449;49.374;8.584;2024-02-14T09:21:05;101015.66;;;9.19;100.00
24486;BME280;13449;49.374;8.584;2024-02-14T09:23:32;101005.16;;;9.19;100.00
24486;BME280;13449;49.374;8.584;2024-02-14T09:26:00;101015.66;;;9.19;100.00
24486;BME280;13449;49.374;8.584;2024-02-14T09:28:30;101012.66;;;9.25;100.00
24486;BME280;13449;49.374;8.584;2024-02-14T09:30:59;101014.53;;;9.23;100.00
24486;BME280;13449;49.374;8.584;2024-02-14T09:33:25;101015.47;;;9.22;100.00
24486;BME280;13449;49.374;8.584;2024-02-14T09:35:52;101007.75;;;9.34;100.00
24486;BME280;13449;49.374;8.584;2024-02-14T09:38:19;101002.19;;;9.52;100.00
24486;BME280;13449;49.374;8.584;2024-02-14T09:40:46;101000.16;;;9.70;100.00
24486;BME280;13449;49.374;8.584;2024-02-14T09:45:50;101006.53;;;9.80;100.00
24486;BME280;13449;49.374;8.584;2024-02-14T09:48:19;101004.84;;;9.79;100.00
24486;BME280;13449;49.374;8.584;2024-02-14T09:50:48;101014.22;;;9.83;100.00
24486;BME280;13449;49.374;8.584;2024-02-14T09:53:15;101004.84;;;9.79;100.00
24486;BME280;13449;49.374;8.584;2024-02-14T09:55:42;100999.59;;;9.92;100.00
24486;BME280;13449;49.374;8.584;2024-02-14T09:58:10;101007.81;;;9.87;100.00
24486;BME280;13449;49.374;8.584;2024-02-14T10:00:36;101008.66;;;9.88;100.00
24486;BME280;13449;49.374;8.584;2024-02-14T10:03:03;101008.94;;;9.83;100.00
24486;BME280;13449;49.374;8.584;2024-02-14T10:05:30;101008.75;;;9.86;100.00
24486;BME280;13449;49.374;8.584;2024-02-14T10:07:57;101015.59;;;9.89;100.00
24486;BME280;13449;49.374;8.584;2024-02-14T10:10:27;101018.31;;;9.87;100.00
24486;BME280;13449;49.374;8.584;2024-02-14T10:12:54;101011.38;;;9.86;100.00
24486;BME280;13449;49.374;8.584;2024-02-14T10:15:22;101019.78;;;9.79;100.00
24486;BME280;13449;49.374;8.584;2024-02-14T10:17:49;101016.63;;;9.86;100.00
24486;BME280;13449;49.374;8.584;2024-02-14T10:20:18;101020.41;;;9.82;100.00
24486;BME280;13449;49.374;8.584;2024-02-14T10:22:45;101027.16;;;9.86;100.00
24486;BME280;13449;49.374;8.584;2024-02-14T10:25:14;101039.38;;;9.87;100.00
24486;BME280;13449;49.374;8.584;2024-02-14T10:27:41;101038.09;;;9.80;100.00
24486;BME280;13449;49.374;8.584;2024-02-14T10:30:08;101033.78;;;9.79;100.00
24486;BME280;13449;49.374;8.584;2024-02-14T10:32:37;101037.69;;;9.86;100.00
24486;BME280;13449;49.374;8.584;2024-02-14T10:35:05;101046.78;;;9.95;100.00
24486;BME280;13449;49.374;8.584;2024-02-14T10:37:35;101049.31;;;9.97;100.00
24486;BME280;13449;49.374;8.584;2024-02-14T10:40:05;101044.22;;;9.94;100.00
24486;BME280;13449;49.374;8.584;2024-02-14T10:42:33;101045.09;;;9.94;100.00
24486;BME280;13449;49.374;8.584;2024-02-14T10:45:00;101053.06;;;9.93;100.00
24486;BME280;13449;49.374;8.584;2024-02-14T10:47:32;101057.97;;;9.99;100.00
24486;BME280;13449;49.374;8.584;2024-02-14T10:50:05;101055.44;;;9.97;100.00
24486;BME280;13449;49.374;8.584;2024-02-14T10:52:35;101056.28;;;9.98;100.00
24486;BME280;13449;49.374;8.584;2024-02-14T10:55:05;101052.50;;;10.02;100.00
24486;BME280;13449;49.374;8.584;2024-02-14T10:57:32;101045.88;;;10.09;100.00
24486;BME280;13449;49.374;8.584;2024-02-14T11:00:10;101047.38;;;10.13;100.00
24486;BME280;13449;49.374;8.584;2024-02-14T11:02:41;101055.28;;;10.13;100.00
24486;BME280;13449;49.374;8.584;2024-02-14T11:05:12;101051.06;;;10.10;100.00
24486;BME280;13449;49.374;8.584;2024-02-14T11:07:45;101052.22;;;10.19;100.00
24486;BME280;13449;49.374;8.584;2024-02-14T11:10:16;101056.00;;;10.29;100.00
24486;BME280;13449;49.374;8.584;2024-02-14T11:12:43;101059.16;;;10.34;100.00
24486;BME280;13449;49.374;8.584;2024-02-14T11:15:21;101048.41;;;10.37;100.00
24486;BME280;13449;49.374;8.584;2024-02-14T11:17:49;101058.97;;;10.50;100.00
24486;BME280;13449;49.374;8.584;2024-02-14T11:20:21;101056.78;;;10.69;100.00
24486;BME280;13449;49.374;8.584;2024-02-14T11:23:01;101059.44;;;10.82;100.00
24486;BME280;13449;49.374;8.584;2024-02-14T11:25:33;101065.78;;;10.92;100.00
24486;BME280;13449;49.374;8.584;2024-02-14T11:28:25;101064.28;;;11.01;100.00
24486;BME280;13449;49.374;8.584;2024-02-14T11:31:00;101069.34;;;11.04;100.00
24486;BME280;13449;49.374;8.584;2024-02-14T11:33:27;101068.09;;;11.09;100.00
24486;BME280;13449;49.374;8.584;2024-02-14T11:35:56;101071.25;;;11.15;100.00
24486;BME280;13449;49.374;8.584;2024-02-14T11:38:24;101073.38;;;11.09;100.00
24486;BME280;13449;49.374;8.584;2024-02-14T11:40:55;101071.91;;;11.05;100.00
24486;BME280;13449;49.374;8.584;2024-02-14T11:43:25;101064.63;;;10.96;100.00
24486;BME280;13449;49.374;8.584;2024-02-14T11:45:53;101062.09;;;11.07;100.00
24486;BME280;13449;49.374;8.584;2024-02-14T11:48:21;101066.63;;;11.05;100.00
24486;BME280;13449;49.374;8.584;2024-02-14T11:50:52;101066.41;;;11.08;100.00
24486;BME280;13449;49.374;8.584;2024-02-14T11:53:20;101064.19;;;11.02;100.00
24486;BME280;13449;49.374;8.584;2024-02-14T11:55:50;101053.34;;;10.94;100.00
24486;BME280;13449;49.374;8.584;2024-02-14T11:58:19;101056.50;;;10.99;100.00
24486;BME280;13449;49.374;8.584;2024-02-14T12:00:47;101052.91;;;11.00;100.00
24486;BME280;13449;49.374;8.584;2024-02-14T12:03:18;101045.72;;;11.02;100.00
24486;BME280;13449;49.374;8.584;2024-02-14T12:05:47;101049.09;;;11.04;100.00
24486;BME280;13449;49.374;8.584;2024-02-14T12:08:14;101044.47;;;10.95;100.00
24486;BME280;13449;49.374;8.584;2024-02-14T12:10:45;101049.53;;;10.98;100.00
24486;BME280;13449;49.374;8.584;2024-02-14T12:13:15;101045.53;;;10.93;100.00
24486;BME280;13449;49.374;8.584;2024-02-14T12:15:46;101031.19;;;10.97;100.00
24486;BME280;13449;49.374;8.584;2024-02-14T12:18:14;101033.09;;;11.07;100.00
24486;BME280;13449;49.374;8.584;2024-02-14T12:20:42;101034.78;;;11.08;100.00
24486;BME280;13449;49.374;8.584;2024-02-14T12:23:17;101036.84;;;11.29;100.00
24486;BME280;13449;49.374;8.584;2024-02-14T12:25:45;101031.97;;;11.48;100.00
24486;BME280;13449;49.374;8.584;2024-02-14T12:28:16;101035.13;;;11.53;100.00
24486;BME280;13449;49.374;8.584;2024-02-14T12:30:49;101020.34;;;11.51;100.00
24486;BME280;13449;49.374;8.584;2024-02-14T12:33:18;101024.56;;;11.53;100.00
24486;BME280;13449;49.374;8.584;2024-02-14T12:35:48;101021.59;;;11.58;100.00
24486;BME280;13449;49.374;8.584;2024-02-14T12:38:16;101021.09;;;11.53;100.00
24486;BME280;13449;49.374;8.584;2024-02-14T12:40:43;101026.38;;;11.53;100.00
24486;BME280;13449;49.374;8.584;2024-02-14T12:43:14;101024.13;;;11.59;100.00
24486;BME280;13449;49.374;8.584;2024-02-14T12:45:42;101020.75;;;11.57;100.00
24486;BME280;13449;49.374;8.584;2024-02-14T12:48:10;101030.47;;;11.57;100.00
24486;BME280;13449;49.374;8.584;2024-02-14T12:50:37;101032.13;;;11.70;100.00
24486;BME280;13449;49.374;8.584;2024-02-14T12:53:07;101031.78;;;11.75;100.00
24486;BME280;13449;49.374;8.584;2024-02-14T12:55:34;101034.41;;;11.75;100.00